sensor_id;sensor_type;location;lat;lon;timestamp;pressure;altitude;pressure_sealevel;temperature;humidity
10060;BME280;5069;49.306;8.636;2023-04-16T00:01:07;100537.53;;;9.34;100.00
10060;BME280;5069;49.306;8.636;2023-04-16T00:04:29;100535.84;;;9.33;100.00
10060;BME280;5069;49.306;8.636;2023-04-16T00:07:31;100534.97;;;9.33;100.00
10060;BME280;5069;49.306;8.636;2023-04-16T00:10:35;100536.72;;;9.34;100.00
10060;BME280;5069;49.306;8.636;2023-04-16T00:13:37;100542.00;;;9.32;100.00
10060;BME280;5069;49.306;8.636;2023-04-16T00:16:39;100537.72;;;9.28;100.00
10060;BME280;5069;49.306;8.636;2023-04-16T00:19:40;100541.16;;;9.30;100.00
10060;BME280;5069;49.306;8.636;2023-04-16T00:22:42;100545.78;;;9.22;100.00
10060;BME280;5069;49.306;8.636;2023-04-16T00:25:44;100549.44;;;9.17;100.00
10060;BME280;5069;49.306;8.636;2023-04-16T00:28:46;100539.09;;;9.09;100.00
10060;BME280;5069;49.306;8.636;2023-04-16T00:31:48;100545.22;;;9.09;100.00
10060;BME280;5069;49.306;8.636;2023-04-16T00:34:50;100536.44;;;9.10;100.00
10060;BME280;5069;49.306;8.636;2023-04-16T00:37:52;100539.09;;;9.09;100.00
10060;BME280;5069;49.306;8.636;2023-04-16T00:41:16;100544.41;;;9.06;100.00
10060;BME280;5069;49.306;8.636;2023-04-16T00:44:17;100533.91;;;9.06;100.00
10060;BME280;5069;49.306;8.636;2023-04-16T00:47:20;100538.94;;;9.15;100.00
10060;BME280;5069;49.306;8.636;2023-04-16T00:50:22;100542.66;;;9.06;100.00
10060;BME280;5069;49.306;8.636;2023-04-16T00:53:24;100551.25;;;9.13;100.00
10060;BME280;5069;49.306;8.636;2023-04-16T00:56:27;100551.22;;;9.15;100.00
10060;BME280;5069;49.306;8.636;2023-04-16T00:59:28;100550.34;;;9.14;100.00
10060;BME280;5069;49.306;8.636;2023-04-16T01:02:32;100546.09;;;9.10;100.00
10060;BME280;5069;49.306;8.636;2023-04-16T01:05:35;100546.88;;;9.12;100.00
10060;BME280;5069;49.306;8.636;2023-04-16T01:08:37;100551.25;;;9.13;100.00
10060;BME280;5069;49.306;8.636;2023-04-16T01:11:39;100550.50;;;9.08;100.00
10060;BME280;5069;49.306;8.636;2023-04-16T01:14:41;100549.53;;;9.12;100.00
10060;BME280;5069;49.306;8.636;2023-04-16T01:17:44;100539.97;;;9.09;100.00
10060;BME280;5069;49.306;8.636;2023-04-16T01:20:47;100547.72;;;9.14;100.00
10060;BME280;5069;49.306;8.636;2023-04-16T01:23:51;100546.84;;;9.15;100.00
10060;BME280;5069;49.306;8.636;2023-04-16T01:26:53;100553.81;;;9.16;100.00
10060;BME280;5069;49.306;8.636;2023-04-16T01:29:55;100559.00;;;9.19;100.00
10060;BME280;5069;49.306;8.636;2023-04-16T01:33:10;100555.47;;;9.20;100.00
10060;BME280;5069;49.306;8.636;2023-04-16T01:36:12;100565.00;;;9.24;100.00
10060;BME280;5069;49.306;8.636;2023-04-16T01:39:14;100570.34;;;9.21;100.00
10060;BME280;5069;49.306;8.636;2023-04-16T01:42:17;100568.63;;;9.20;100.00
10060;BME280;5069;49.306;8.636;2023-04-16T01:45:18;100565.84;;;9.26;100.00
10060;BME280;5069;49.306;8.636;2023-04-16T01:48:20;100571.25;;;9.20;100.00
10060;BME280;5069;49.306;8.636;2023-04-16T01:51:22;100578.31;;;9.18;100.00
10060;BME280;5069;49.306;8.636;2023-04-16T01:54:24;100580.94;;;9.18;100.00
10060;BME280;5069;49.306;8.636;2023-04-16T01:57:26;100577.56;;;9.13;100.00
10060;BME280;5069;49.306;8.636;2023-04-16T02:00:28;100573.19;;;9.12;100.00
10060;BME280;5069;49.306;8.636;2023-04-16T02:03:30;100583.69;;;9.13;100.00
10060;BME280;5069;49.306;8.636;2023-04-16T02:06:32;100583.78;;;9.10;100.00
10060;BME280;5069;49.306;8.636;2023-04-16T02:09:36;100576.75;;;9.11;100.00
10060;BME280;5069;49.306;8.636;2023-04-16T02:12:40;100576.06;;;9.03;100.00
10060;BME280;5069;49.306;8.636;2023-04-16T02:15:46;100584.88;;;9.00;100.00
10060;BME280;5069;49.306;8.636;2023-04-16T02:18:51;100585.00;;;8.96;100.00
10060;BME280;5069;49.306;8.636;2023-04-16T02:21:55;100579.72;;;8.96;100.00
10060;BME280;5069;49.306;8.636;2023-04-16T02:24:56;100574.44;;;8.97;100.00
10060;BME280;5069;49.306;8.636;2023-04-16T02:27:59;100584.19;;;8.94;100.00
10060;BME280;5069;49.306;8.636;2023-04-16T02:31:13;100584.22;;;8.92;100.00
10060;BME280;5069;49.306;8.636;2023-04-16T02:34:39;100586.97;;;8.88;100.00
10060;BME280;5069;49.306;8.636;2023-04-16T02:37:42;100580.88;;;8.84;100.00
10060;BME280;5069;49.306;8.636;2023-04-16T02:40:44;100581.84;;;8.82;100.00
10060;BME280;5069;49.306;8.636;2023-04-16T02:43:46;100586.22;;;8.81;100.00
10060;BME280;5069;49.306;8.636;2023-04-16T02:46:47;100587.09;;;8.82;100.00
10060;BME280;5069;49.306;8.636;2023-04-16T02:49:50;100588.78;;;8.84;100.00
10060;BME280;5069;49.306;8.636;2023-04-16T02:52:52;100588.00;;;8.79;100.00
10060;BME280;5069;49.306;8.636;2023-04-16T02:55:54;100589.72;;;8.82;100.00
10060;BME280;5069;49.306;8.636;2023-04-16T02:58:56;100593.25;;;8.81;100.00
10060;BME280;5069;49.306;8.636;2023-04-16T03:01:58;100590.50;;;8.85;100.00
10060;BME280;5069;49.306;8.636;2023-04-16T03:05:01;100592.16;;;8.89;100.00
10060;BME280;5069;49.306;8.636;2023-04-16T03:08:03;100592.16;;;8.89;100.00
10060;BME280;5069;49.306;8.636;2023-04-16T03:11:08;100590.38;;;8.91;100.00
10060;BME280;5069;49.306;8.636;2023-04-16T03:14:10;100592.16;;;8.89;100.00
10060;BME280;5069;49.306;8.636;2023-04-16T03:17:11;100596.47;;;8.92;100.00
10060;BME280;5069;49.306;8.636;2023-04-16T03:20:14;100600.75;;;8.96;100.00
10060;BME280;5069;49.306;8.636;2023-04-16T03:23:17;100599.03;;;8.95;100.00
10060;BME280;5069;49.306;8.636;2023-04-16T03:26:19;100601.56;;;8.99;100.00
10060;BME280;5069;49.306;8.636;2023-04-16T03:29:23;100606.91;;;8.95;100.00
10060;BME280;5069;49.306;8.636;2023-04-16T03:32:26;100609.50;;;8.98;100.00
10060;BME280;5069;49.306;8.636;2023-04-16T03:35:28;100602.59;;;8.94;100.00
10060;BME280;5069;49.306;8.636;2023-04-16T03:38:30;100608.59;;;8.99;100.00
10060;BME280;5069;49.306;8.636;2023-04-16T03:41:32;100614.81;;;8.95;100.00
10060;BME280;5069;49.306;8.636;2023-04-16T03:44:36;100618.41;;;8.91;100.00
10060;BME280;5069;49.306;8.636;2023-04-16T03:47:38;100613.09;;;8.94;100.00
10060;BME280;5069;49.306;8.636;2023-04-16T03:50:44;100611.41;;;8.90;100.00
10060;BME280;5069;49.306;8.636;2023-04-16T03:53:52;100611.50;;;8.87;100.00
10060;BME280;5069;49.306;8.636;2023-04-16T03:56:55;100621.16;;;8.86;100.00
10060;BME280;5069;49.306;8.636;2023-04-16T03:59:58;100613.28;;;8.85;100.00
10060;BME280;5069;49.306;8.636;2023-04-16T04:03:03;100611.56;;;8.84;100.00
10060;BME280;5069;49.306;8.636;2023-04-16T04:06:07;100614.13;;;8.87;100.00
10060;BME280;5069;49.306;8.636;2023-04-16T04:09:09;100615.94;;;8.83;100.00
10060;BME280;5069;49.306;8.636;2023-04-16T04:12:11;100618.56;;;8.85;100.00
10060;BME280;5069;49.306;8.636;2023-04-16T04:15:15;100619.50;;;8.82;100.00
10060;BME280;5069;49.306;8.636;2023-04-16T04:18:17;100616.91;;;8.81;100.00
10060;BME280;5069;49.306;8.636;2023-04-16T04:21:19;100625.69;;;8.80;100.00
10060;BME280;5069;49.306;8.636;2023-04-16T04:24:21;100626.53;;;8.80;100.00
10060;BME280;5069;49.306;8.636;2023-04-16T04:27:23;100623.00;;;8.83;100.00
10060;BME280;5069;49.306;8.636;2023-04-16T04:30:25;100621.34;;;8.77;100.00
10060;BME280;5069;49.306;8.636;2023-04-16T04:33:28;100629.19;;;8.79;100.00
10060;BME280;5069;49.306;8.636;2023-04-16T04:36:29;100628.41;;;8.75;100.00
10060;BME280;5069;49.306;8.636;2023-04-16T04:39:32;100633.59;;;8.78;100.00
10060;BME280;5069;49.306;8.636;2023-04-16T04:42:37;100640.59;;;8.79;100.00
10060;BME280;5069;49.306;8.636;2023-04-16T04:45:39;100643.25;;;8.78;100.00
10060;BME280;5069;49.306;8.636;2023-04-16T04:48:43;100646.78;;;8.77;100.00
10060;BME280;5069;49.306;8.636;2023-04-16T04:51:45;100651.97;;;8.80;100.00
10060;BME280;5069;49.306;8.636;2023-04-16T04:54:48;100661.56;;;8.82;100.00
10060;BME280;5069;49.306;8.636;2023-04-16T04:57:50;100665.88;;;8.85;100.00
10060;BME280;5069;49.306;8.636;2023-04-16T05:00:53;100661.50;;;8.84;100.00
10060;BME280;5069;49.306;8.636;2023-04-16T05:04:17;100660.69;;;8.82;100.00
10060;BME280;5069;49.306;8.636;2023-04-16T05:07:20;100668.53;;;8.83;100.00
10060;BME280;5069;49.306;8.636;2023-04-16T05:10:23;100658.81;;;8.87;100.00
10060;BME280;5069;49.306;8.636;2023-04-16T05:13:25;100666.56;;;8.93;100.00
10060;BME280;5069;49.306;8.636;2023-04-16T05:16:27;100664.00;;;8.90;100.00
10060;BME280;5069;49.306;8.636;2023-04-16T05:19:29;100669.25;;;8.90;100.00
10060;BME280;5069;49.306;8.636;2023-04-16T05:22:31;100674.47;;;8.93;100.00
10060;BME280;5069;49.306;8.636;2023-04-16T05:25:54;100681.47;;;8.94;100.00
10060;BME280;5069;49.306;8.636;2023-04-16T05:28:55;100684.16;;;8.89;100.00
10060;BME280;5069;49.306;8.636;2023-04-16T05:31:57;100684.97;;;8.93;100.00
10060;BME280;5069;49.306;8.636;2023-04-16T05:34:59;100690.91;;;9.01;100.00
10060;BME280;5069;49.306;8.636;2023-04-16T05:38:01;100686.53;;;9.00;100.00
10060;BME280;5069;49.306;8.636;2023-04-16T05:41:05;100696.19;;;9.01;100.00
10060;BME280;5069;49.306;8.636;2023-04-16T05:44:07;100694.38;;;9.03;100.00
10060;BME280;5069;49.306;8.636;2023-04-16T05:47:09;100701.41;;;9.02;100.00
10060;BME280;5069;49.306;8.636;2023-04-16T05:50:11;100706.56;;;9.07;100.00
10060;BME280;5069;49.306;8.636;2023-04-16T05:53:31;100711.88;;;9.05;100.00
10060;BME280;5069;49.306;8.636;2023-04-16T05:56:33;100709.06;;;9.13;100.00
10060;BME280;5069;49.306;8.636;2023-04-16T05:59:35;100712.53;;;9.15;100.00
10060;BME280;5069;49.306;8.636;2023-04-16T06:02:36;100714.31;;;9.13;100.00
10060;BME280;5069;49.306;8.636;2023-04-16T06:05:39;100718.69;;;9.12;100.00
10060;BME280;5069;49.306;8.636;2023-04-16T06:08:41;100714.25;;;9.16;100.00
10060;BME280;5069;49.306;8.636;2023-04-16T06:11:43;100717.66;;;9.21;100.00
10060;BME280;5069;49.306;8.636;2023-04-16T06:14:45;100726.31;;;9.25;100.00
10060;BME280;5069;49.306;8.636;2023-04-16T06:17:48;100712.16;;;9.30;100.00
10060;BME280;5069;49.306;8.636;2023-04-16T06:20:50;100723.63;;;9.28;100.00
10060;BME280;5069;49.306;8.636;2023-04-16T06:23:53;100728.84;;;9.29;100.00
10060;BME280;5069;49.306;8.636;2023-04-16T06:26:55;100734.97;;;9.30;100.00
10060;BME280;5069;49.306;8.636;2023-04-16T06:29:58;100733.22;;;9.30;100.00
10060;BME280;5069;49.306;8.636;2023-04-16T06:32:59;100737.50;;;9.34;100.00
10060;BME280;5069;49.306;8.636;2023-04-16T06:36:02;100735.69;;;9.36;100.00
10060;BME280;5069;49.306;8.636;2023-04-16T06:39:04;100733.19;;;9.32;100.00
10060;BME280;5069;49.306;8.636;2023-04-16T06:42:06;100737.53;;;9.33;100.00
10060;BME280;5069;49.306;8.636;2023-04-16T06:45:08;100734.94;;;9.31;100.00
10060;BME280;5069;49.306;8.636;2023-04-16T06:48:10;100741.94;;;9.32;100.00
10060;BME280;5069;49.306;8.636;2023-04-16T06:51:12;100748.94;;;9.33;100.00
10060;BME280;5069;49.306;8.636;2023-04-16T06:54:14;100742.91;;;9.28;100.00
10060;BME280;5069;49.306;8.636;2023-04-16T06:57:16;100750.88;;;9.25;100.00
10060;BME280;5069;49.306;8.636;2023-04-16T07:00:18;100750.81;;;9.28;100.00
10060;BME280;5069;49.306;8.636;2023-04-16T07:03:20;100751.63;;;9.30;100.00
10060;BME280;5069;49.306;8.636;2023-04-16T07:06:22;100751.38;;;9.41;100.00
10060;BME280;5069;49.306;8.636;2023-04-16T07:09:24;100751.25;;;9.45;100.00
10060;BME280;5069;49.306;8.636;2023-04-16T07:12:27;100752.03;;;9.50;100.00
10060;BME280;5069;49.306;8.636;2023-04-16T07:15:28;100754.56;;;9.55;100.00
10060;BME280;5069;49.306;8.636;2023-04-16T07:18:30;100753.59;;;9.58;100.00
10060;BME280;5069;49.306;8.636;2023-04-16T07:21:32;100761.47;;;9.59;100.00
10060;BME280;5069;49.306;8.636;2023-04-16T07:24:34;100750.97;;;9.58;100.00
10060;BME280;5069;49.306;8.636;2023-04-16T07:27:36;100758.81;;;9.61;100.00
10060;BME280;5069;49.306;8.636;2023-04-16T07:30:38;100759.72;;;9.60;100.00
10060;BME280;5069;49.306;8.636;2023-04-16T07:33:40;100766.75;;;9.58;100.00
10060;BME280;5069;49.306;8.636;2023-04-16T07:36:41;100772.88;;;9.60;100.00
10060;BME280;5069;49.306;8.636;2023-04-16T07:39:43;100769.34;;;9.61;100.00
10060;BME280;5069;49.306;8.636;2023-04-16T07:42:47;100779.91;;;9.59;100.00
10060;BME280;5069;49.306;8.636;2023-04-16T07:45:49;100766.75;;;9.58;100.00
10060;BME280;5069;49.306;8.636;2023-04-16T07:48:53;100777.25;;;9.59;100.00
10060;BME280;5069;49.306;8.636;2023-04-16T07:51:55;100768.63;;;9.54;100.00
10060;BME280;5069;49.306;8.636;2023-04-16T07:54:57;100779.88;;;9.61;100.00
10060;BME280;5069;49.306;8.636;2023-04-16T07:57:59;100781.50;;;9.66;100.00
10060;BME280;5069;49.306;8.636;2023-04-16T08:01:01;100785.78;;;9.70;100.00
10060;BME280;5069;49.306;8.636;2023-04-16T08:04:03;100778.75;;;9.71;100.00
10060;BME280;5069;49.306;8.636;2023-04-16T08:07:05;100789.16;;;9.75;100.00
10060;BME280;5069;49.306;8.636;2023-04-16T08:10:07;100796.25;;;9.73;100.00
10060;BME280;5069;49.306;8.636;2023-04-16T08:13:09;100790.03;;;9.76;100.00
10060;BME280;5069;49.306;8.636;2023-04-16T08:16:10;100789.97;;;9.79;100.00
10060;BME280;5069;49.306;8.636;2023-04-16T08:19:12;100797.94;;;9.74;100.00
10060;BME280;5069;49.306;8.636;2023-04-16T08:22:14;100799.75;;;9.74;100.00
10060;BME280;5069;49.306;8.636;2023-04-16T08:25:16;100804.09;;;9.75;100.00
10060;BME280;5069;49.306;8.636;2023-04-16T08:28:18;100812.97;;;9.71;100.00
10060;BME280;5069;49.306;8.636;2023-04-16T08:31:20;100809.31;;;9.76;100.00
10060;BME280;5069;49.306;8.636;2023-04-16T08:34:22;100813.84;;;9.71;100.00
10060;BME280;5069;49.306;8.636;2023-04-16T08:37:25;100815.47;;;9.75;100.00
10060;BME280;5069;49.306;8.636;2023-04-16T08:40:27;100818.09;;;9.77;100.00
10060;BME280;5069;49.306;8.636;2023-04-16T08:43:32;100819.88;;;9.75;100.00
10060;BME280;5069;49.306;8.636;2023-04-16T08:46:39;100819.84;;;9.78;100.00
10060;BME280;5069;49.306;8.636;2023-04-16T08:49:43;100823.28;;;9.80;100.00
10060;BME280;5069;49.306;8.636;2023-04-16T08:52:55;100826.59;;;9.88;100.00
10060;BME280;5069;49.306;8.636;2023-04-16T08:56:01;100833.56;;;9.90;100.00
10060;BME280;5069;49.306;8.636;2023-04-16T08:59:04;100830.06;;;9.90;100.00
10060;BME280;5069;49.306;8.636;2023-04-16T09:02:08;100836.16;;;9.92;100.00
10060;BME280;5069;49.306;8.636;2023-04-16T09:05:34;100833.38;;;9.98;100.00
10060;BME280;5069;49.306;8.636;2023-04-16T09:08:38;100835.84;;;10.04;100.00
10060;BME280;5069;49.306;8.636;2023-04-16T09:11:40;100836.81;;;10.02;100.00
10060;BME280;5069;49.306;8.636;2023-04-16T09:14:42;100843.75;;;10.04;100.00
10060;BME280;5069;49.306;8.636;2023-04-16T09:17:44;100850.84;;;10.02;100.00
10060;BME280;5069;49.306;8.636;2023-04-16T09:20:48;100854.28;;;10.04;100.00
10060;BME280;5069;49.306;8.636;2023-04-16T09:23:52;100852.50;;;10.06;100.00
10060;BME280;5069;49.306;8.636;2023-04-16T09:26:54;100851.59;;;10.07;100.00
10060;BME280;5069;49.306;8.636;2023-04-16T09:30:24;100852.66;;;10.00;100.00
10060;BME280;5069;49.306;8.636;2023-04-16T09:33:27;100856.25;;;9.96;100.00
10060;BME280;5069;49.306;8.636;2023-04-16T09:36:29;100866.81;;;9.96;100.00
10060;BME280;5069;49.306;8.636;2023-04-16T09:39:33;100870.34;;;9.95;100.00
10060;BME280;5069;49.306;8.636;2023-04-16T09:42:35;100858.97;;;9.93;100.00
10060;BME280;5069;49.306;8.636;2023-04-16T09:45:51;100862.47;;;9.93;100.00
10060;BME280;5069;49.306;8.636;2023-04-16T09:48:53;100860.72;;;9.92;100.00
10060;BME280;5069;49.306;8.636;2023-04-16T09:51:54;100863.56;;;9.85;100.00
10060;BME280;5069;49.306;8.636;2023-04-16T09:54:58;100861.81;;;9.84;100.00
10060;BME280;5069;49.306;8.636;2023-04-16T09:58:01;100869.78;;;9.81;100.00
10060;BME280;5069;49.306;8.636;2023-04-16T10:01:12;100870.75;;;9.77;100.00
10060;BME280;5069;49.306;8.636;2023-04-16T10:04:14;100873.47;;;9.74;100.00
10060;BME280;5069;49.306;8.636;2023-04-16T10:07:17;100875.38;;;9.67;100.00
10060;BME280;5069;49.306;8.636;2023-04-16T10:10:19;100872.81;;;9.63;100.00
10060;BME280;5069;49.306;8.636;2023-04-16T10:13:21;100874.63;;;9.61;100.00
10060;BME280;5069;49.306;8.636;2023-04-16T10:16:23;100878.88;;;9.66;100.00
10060;BME280;5069;49.306;8.636;2023-04-16T10:19:28;100883.16;;;9.72;100.00
10060;BME280;5069;49.306;8.636;2023-04-16T10:22:31;100888.56;;;9.66;100.00
10060;BME280;5069;49.306;8.636;2023-04-16T10:25:33;100888.69;;;9.60;100.00
10060;BME280;5069;49.306;8.636;2023-04-16T10:28:36;100888.56;;;9.66;100.00
10060;BME280;5069;49.306;8.636;2023-04-16T10:31:38;100894.72;;;9.63;100.00
10060;BME280;5069;49.306;8.636;2023-04-16T10:34:40;100892.22;;;9.59;100.00
10060;BME280;5069;49.306;8.636;2023-04-16T10:37:42;100886.94;;;9.59;100.00
10060;BME280;5069;49.306;8.636;2023-04-16T10:40:46;100893.94;;;9.60;100.00
10060;BME280;5069;49.306;8.636;2023-04-16T10:43:49;100894.72;;;9.65;100.00
10060;BME280;5069;49.306;8.636;2023-04-16T10:46:54;100897.34;;;9.65;100.00
10060;BME280;5069;49.306;8.636;2023-04-16T10:49:56;100893.94;;;9.60;100.00
10060;BME280;5069;49.306;8.636;2023-04-16T10:53:26;100892.34;;;9.52;100.00
10060;BME280;5069;49.306;8.636;2023-04-16T10:56:31;100893.28;;;9.50;100.00
10060;BME280;5069;49.306;8.636;2023-04-16T10:59:34;100895.94;;;9.48;100.00
10060;BME280;5069;49.306;8.636;2023-04-16T11:02:39;100892.41;;;9.49;100.00
10060;BME280;5069;49.306;8.636;2023-04-16T11:05:45;100903.75;;;9.51;100.00
10060;BME280;5069;49.306;8.636;2023-04-16T11:08:50;100891.31;;;9.60;100.00
10060;BME280;5069;49.306;8.636;2023-04-16T11:11:56;100888.72;;;9.58;100.00
10060;BME280;5069;49.306;8.636;2023-04-16T11:14:59;100887.56;;;9.70;100.00
10060;BME280;5069;49.306;8.636;2023-04-16T11:18:02;100896.28;;;9.73;100.00
10060;BME280;5069;49.306;8.636;2023-04-16T11:21:08;100885.69;;;9.75;100.00
10060;BME280;5069;49.306;8.636;2023-04-16T11:24:11;100890.94;;;9.76;100.00
10060;BME280;5069;49.306;8.636;2023-04-16T11:27:13;100884.81;;;9.76;100.00
10060;BME280;5069;49.306;8.636;2023-04-16T11:30:16;100891.81;;;9.77;100.00
10060;BME280;5069;49.306;8.636;2023-04-16T11:33:18;100894.41;;;9.78;100.00
10060;BME280;5069;49.306;8.636;2023-04-16T11:36:20;100894.28;;;9.84;100.00
10060;BME280;5069;49.306;8.636;2023-04-16T11:39:51;100902.06;;;9.89;100.00
10060;BME280;5069;49.306;8.636;2023-04-16T11:42:53;100901.19;;;9.88;100.00
10060;BME280;5069;49.306;8.636;2023-04-16T11:46:00;100894.97;;;9.91;100.00
10060;BME280;5069;49.306;8.636;2023-04-16T11:49:14;100898.47;;;9.91;100.00
10060;BME280;5069;49.306;8.636;2023-04-16T11:52:30;100894.06;;;9.93;100.00
10060;BME280;5069;49.306;8.636;2023-04-16T11:55:42;100899.31;;;9.93;100.00
10060;BME280;5069;49.306;8.636;2023-04-16T11:59:04;100900.22;;;9.92;100.00
10060;BME280;5069;49.306;8.636;2023-04-16T12:02:07;100902.81;;;9.95;100.00
10060;BME280;5069;49.306;8.636;2023-04-16T12:05:35;100902.56;;;10.05;100.00
10060;BME280;5069;49.306;8.636;2023-04-16T12:08:39;100901.66;;;10.07;100.00
10060;BME280;5069;49.306;8.636;2023-04-16T12:11:41;100907.69;;;10.11;100.00
10060;BME280;5069;49.306;8.636;2023-04-16T12:15:05;100909.47;;;10.10;100.00
10060;BME280;5069;49.306;8.636;2023-04-16T12:18:07;100910.44;;;10.06;100.00
10060;BME280;5069;49.306;8.636;2023-04-16T12:21:10;100899.84;;;10.09;100.00
10060;BME280;5069;49.306;8.636;2023-04-16T12:24:14;100906.72;;;10.16;100.00
10060;BME280;5069;49.306;8.636;2023-04-16T12:27:16;100903.06;;;10.23;100.00
10060;BME280;5069;49.306;8.636;2023-04-16T12:30:19;100905.47;;;10.31;100.00
10060;BME280;5069;49.306;8.636;2023-04-16T12:33:21;100902.97;;;10.26;100.00
10060;BME280;5069;49.306;8.636;2023-04-16T12:36:23;100909.13;;;10.25;100.00
10060;BME280;5069;49.306;8.636;2023-04-16T12:39:25;100916.34;;;10.19;100.00
10060;BME280;5069;49.306;8.636;2023-04-16T12:42:27;100911.94;;;10.19;100.00
10060;BME280;5069;49.306;8.636;2023-04-16T12:45:35;100913.66;;;10.20;100.00
10060;BME280;5069;49.306;8.636;2023-04-16T12:48:37;100912.56;;;10.29;100.00
10060;BME280;5069;49.306;8.636;2023-04-16T12:51:39;100913.38;;;10.31;100.00
10060;BME280;5069;49.306;8.636;2023-04-16T12:54:41;100909.03;;;10.30;100.00
10060;BME280;5069;49.306;8.636;2023-04-16T12:57:43;100908.19;;;10.29;100.00
10060;BME280;5069;49.306;8.636;2023-04-16T13:00:45;100904.50;;;10.37;100.00
10060;BME280;5069;49.306;8.636;2023-04-16T13:03:47;100905.28;;;10.40;100.00
10060;BME280;5069;49.306;8.636;2023-04-16T13:06:49;100901.59;;;10.47;100.00
10060;BME280;5069;49.306;8.636;2023-04-16T13:09:51;100903.34;;;10.47;100.00
10060;BME280;5069;49.306;8.636;2023-04-16T13:12:53;100905.09;;;10.48;100.00
10060;BME280;5069;49.306;8.636;2023-04-16T13:15:55;100904.06;;;10.53;100.00
10060;BME280;5069;49.306;8.636;2023-04-16T13:18:57;100904.00;;;10.55;100.00
10060;BME280;5069;49.306;8.636;2023-04-16T13:21:59;100904.91;;;10.54;100.00
10060;BME280;5069;49.306;8.636;2023-04-16T13:25:01;100909.22;;;10.58;100.00
10060;BME280;5069;49.306;8.636;2023-04-16T13:28:02;100907.53;;;10.54;100.00
10060;BME280;5069;49.306;8.636;2023-04-16T13:31:04;100900.50;;;10.54;100.00
10060;BME280;5069;49.306;8.636;2023-04-16T13:34:06;100907.47;;;10.57;100.00
10060;BME280;5069;49.306;8.636;2023-04-16T13:37:08;100907.38;;;10.60;100.00
10060;BME280;5069;49.306;8.636;2023-04-16T13:40:10;100908.84;;;10.71;100.00
10060;BME280;5069;49.306;8.636;2023-04-16T13:43:15;100910.72;;;10.68;100.00
10060;BME280;5069;49.306;8.636;2023-04-16T13:46:19;100911.59;;;10.67;100.00
10060;BME280;5069;49.306;8.636;2023-04-16T13:49:21;100915.78;;;10.75;100.00
10060;BME280;5069;49.306;8.636;2023-04-16T13:52:24;100916.69;;;10.74;100.00
10060;BME280;5069;49.306;8.636;2023-04-16T13:55:25;100908.66;;;10.79;100.00
10060;BME280;5069;49.306;8.636;2023-04-16T13:58:27;100911.31;;;10.77;100.00
10060;BME280;5069;49.306;8.636;2023-04-16T14:01:29;100913.94;;;10.79;100.00
10060;BME280;5069;49.306;8.636;2023-04-16T14:04:34;100909.53;;;10.80;100.00
10060;BME280;5069;49.306;8.636;2023-04-16T14:07:36;100913.94;;;10.79;100.00
10060;BME280;5069;49.306;8.636;2023-04-16T14:10:38;100908.81;;;10.73;100.00
10060;BME280;5069;49.306;8.636;2023-04-16T14:13:40;100914.88;;;10.76;100.00
10060;BME280;5069;49.306;8.636;2023-04-16T14:16:42;100906.19;;;10.73;100.00
10060;BME280;5069;49.306;8.636;2023-04-16T14:19:44;100915.72;;;10.77;100.00
10060;BME280;5069;49.306;8.636;2023-04-16T14:22:46;100910.56;;;10.74;100.00
10060;BME280;5069;49.306;8.636;2023-04-16T14:25:48;100914.09;;;10.73;100.00
10060;BME280;5069;49.306;8.636;2023-04-16T14:28:50;100919.31;;;10.76;100.00
10060;BME280;5069;49.306;8.636;2023-04-16T14:31:52;100914.81;;;10.80;100.00
10060;BME280;5069;49.306;8.636;2023-04-16T14:34:54;100915.56;;;10.83;100.00
10060;BME280;5069;49.306;8.636;2023-04-16T14:37:55;100918.22;;;10.83;100.00
10060;BME280;5069;49.306;8.636;2023-04-16T14:40:57;100917.31;;;10.84;100.00
10060;BME280;5069;49.306;8.636;2023-04-16T14:44:00;100912.91;;;10.85;100.00
10060;BME280;5069;49.306;8.636;2023-04-16T14:47:05;100919.06;;;10.85;100.00
10060;BME280;5069;49.306;8.636;2023-04-16T14:50:07;100917.31;;;10.84;100.00
10060;BME280;5069;49.306;8.636;2023-04-16T14:53:10;100921.78;;;10.82;100.00
10060;BME280;5069;49.306;8.636;2023-04-16T14:56:12;100917.31;;;10.84;100.00
10060;BME280;5069;49.306;8.636;2023-04-16T14:59:14;100907.75;;;10.80;100.00
10060;BME280;5069;49.306;8.636;2023-04-16T15:02:16;100918.38;;;10.77;100.00
10060;BME280;5069;49.306;8.636;2023-04-16T15:05:18;100922.03;;;10.71;100.00
10060;BME280;5069;49.306;8.636;2023-04-16T15:08:21;100916.81;;;10.70;100.00
10060;BME280;5069;49.306;8.636;2023-04-16T15:11:23;100916.75;;;10.71;100.00
10060;BME280;5069;49.306;8.636;2023-04-16T15:14:46;100914.13;;;10.71;100.00
10060;BME280;5069;49.306;8.636;2023-04-16T15:17:49;100914.09;;;10.73;100.00
10060;BME280;5069;49.306;8.636;2023-04-16T15:20:52;100917.63;;;10.72;100.00
10060;BME280;5069;49.306;8.636;2023-04-16T15:23:55;100914.84;;;10.78;100.00
10060;BME280;5069;49.306;8.636;2023-04-16T15:26:57;100917.47;;;10.78;100.00
10060;BME280;5069;49.306;8.636;2023-04-16T15:29:59;100912.78;;;10.89;100.00
10060;BME280;5069;49.306;8.636;2023-04-16T15:33:01;100915.28;;;10.94;100.00
10060;BME280;5069;49.306;8.636;2023-04-16T15:36:03;100920.47;;;10.98;100.00
10060;BME280;5069;49.306;8.636;2023-04-16T15:39:05;100925.66;;;11.01;100.00
10060;BME280;5069;49.306;8.636;2023-04-16T15:42:07;100930.78;;;11.06;100.00
10060;BME280;5069;49.306;8.636;2023-04-16T15:45:11;100931.63;;;11.08;100.00
10060;BME280;5069;49.306;8.636;2023-04-16T15:48:12;100925.56;;;11.04;100.00
10060;BME280;5069;49.306;8.636;2023-04-16T15:51:15;100928.94;;;11.09;100.00
10060;BME280;5069;49.306;8.636;2023-04-16T15:54:16;100934.38;;;11.05;100.00
10060;BME280;5069;49.306;8.636;2023-04-16T15:57:19;100927.25;;;11.07;100.00
10060;BME280;5069;49.306;8.636;2023-04-16T16:00:21;100921.84;;;11.11;100.00
10060;BME280;5069;49.306;8.636;2023-04-16T16:03:23;100927.91;;;11.15;100.00
10060;BME280;5069;49.306;8.636;2023-04-16T16:06:26;100938.50;;;11.13;100.00
10060;BME280;5069;49.306;8.636;2023-04-16T16:09:28;100935.78;;;11.16;100.00